sensor_id;sensor_type;location;lat;lon;timestamp;P1;durP1;ratioP1;P2;durP2;ratioP2
51664;SDS011;37751;52.408;12.536;2024-02-14T00:01:52;9.70;;;5.23;;
51664;SDS011;37751;52.408;12.536;2024-02-14T00:04:26;10.07;;;4.87;;
51664;SDS011;37751;52.408;12.536;2024-02-14T00:06:57;8.67;;;4.13;;
51664;SDS011;37751;52.408;12.536;2024-02-14T00:09:29;11.13;;;4.50;;
51664;SDS011;37751;52.408;12.536;2024-02-14T00:12:00;8.40;;;4.43;;
51664;SDS011;37751;52.408;12.536;2024-02-14T00:14:31;9.00;;;4.87;;
51664;SDS011;37751;52.408;12.536;2024-02-14T00:17:02;6.23;;;4.10;;
51664;SDS011;37751;52.408;12.536;2024-02-14T00:19:37;11.23;;;4.37;;
51664;SDS011;37751;52.408;12.536;2024-02-14T00:22:08;10.70;;;4.90;;
51664;SDS011;37751;52.408;12.536;2024-02-14T00:24:39;7.90;;;3.87;;
51664;SDS011;37751;52.408;12.536;2024-02-14T00:27:10;7.77;;;3.87;;
51664;SDS011;37751;52.408;12.536;2024-02-14T00:29:42;5.47;;;3.60;;
51664;SDS011;37751;52.408;12.536;2024-02-14T00:32:16;8.20;;;4.10;;
51664;SDS011;37751;52.408;12.536;2024-02-14T00:34:55;9.77;;;3.53;;
51664;SDS011;37751;52.408;12.536;2024-02-14T00:37:26;6.60;;;3.90;;
51664;SDS011;37751;52.408;12.536;2024-02-14T00:39:57;6.40;;;3.60;;
51664;SDS011;37751;52.408;12.536;2024-02-14T00:42:30;7.37;;;4.20;;
51664;SDS011;37751;52.408;12.536;2024-02-14T00:45:01;8.20;;;4.20;;
51664;SDS011;37751;52.408;12.536;2024-02-14T00:47:33;8.30;;;3.97;;
51664;SDS011;37751;52.408;12.536;2024-02-14T00:50:08;6.33;;;3.90;;
51664;SDS011;37751;52.408;12.536;2024-02-14T00:52:41;6.20;;;3.73;;
51664;SDS011;37751;52.408;12.536;2024-02-14T00:55:13;7.90;;;3.90;;
51664;SDS011;37751;52.408;12.536;2024-02-14T00:57:44;6.03;;;3.53;;
51664;SDS011;37751;52.408;12.536;2024-02-14T01:00:18;4.67;;;3.67;;
51664;SDS011;37751;52.408;12.536;2024-02-14T01:02:52;6.73;;;3.80;;
51664;SDS011;37751;52.408;12.536;2024-02-14T01:05:27;7.47;;;4.30;;
51664;SDS011;37751;52.408;12.536;2024-02-14T01:07:58;7.83;;;3.80;;
51664;SDS011;37751;52.408;12.536;2024-02-14T01:10:30;9.53;;;5.17;;
51664;SDS011;37751;52.408;12.536;2024-02-14T01:13:01;6.70;;;3.80;;
51664;SDS011;37751;52.408;12.536;2024-02-14T01:15:33;6.67;;;3.63;;
51664;SDS011;37751;52.408;12.536;2024-02-14T01:18:04;5.23;;;3.80;;
51664;SDS011;37751;52.408;12.536;2024-02-14T01:20:39;6.57;;;3.90;;
51664;SDS011;37751;52.408;12.536;2024-02-14T01:23:10;5.43;;;3.87;;
51664;SDS011;37751;52.408;12.536;2024-02-14T01:25:47;7.00;;;4.03;;
51664;SDS011;37751;52.408;12.536;2024-02-14T01:28:18;7.23;;;4.27;;
51664;SDS011;37751;52.408;12.536;2024-02-14T01:30:49;8.13;;;4.73;;
51664;SDS011;37751;52.408;12.536;2024-02-14T01:33:21;9.93;;;4.50;;
51664;SDS011;37751;52.408;12.536;2024-02-14T01:35:55;6.10;;;3.50;;
51664;SDS011;37751;52.408;12.536;2024-02-14T01:38:27;6.23;;;3.70;;
51664;SDS011;37751;52.408;12.536;2024-02-14T01:41:02;5.63;;;3.50;;
51664;SDS011;37751;52.408;12.536;2024-02-14T01:43:35;5.67;;;3.50;;
51664;SDS011;37751;52.408;12.536;2024-02-14T01:46:06;4.50;;;3.27;;
51664;SDS011;37751;52.408;12.536;2024-02-14T01:48:49;6.10;;;3.77;;
51664;SDS011;37751;52.408;12.536;2024-02-14T01:51:23;5.23;;;3.00;;
51664;SDS011;37751;52.408;12.536;2024-02-14T01:53:55;5.40;;;3.70;;
51664;SDS011;37751;52.408;12.536;2024-02-14T01:56:27;5.77;;;3.20;;
51664;SDS011;37751;52.408;12.536;2024-02-14T01:58:58;4.77;;;3.10;;
51664;SDS011;37751;52.408;12.536;2024-02-14T02:01:31;9.33;;;3.77;;
51664;SDS011;37751;52.408;12.536;2024-02-14T02:04:02;7.37;;;3.67;;
51664;SDS011;37751;52.408;12.536;2024-02-14T02:06:37;5.47;;;3.30;;
51664;SDS011;37751;52.408;12.536;2024-02-14T02:09:09;6.37;;;4.00;;
51664;SDS011;37751;52.408;12.536;2024-02-14T02:11:48;6.60;;;3.80;;
51664;SDS011;37751;52.408;12.536;2024-02-14T02:14:41;6.60;;;3.87;;
51664;SDS011;37751;52.408;12.536;2024-02-14T02:17:32;6.23;;;3.80;;
51664;SDS011;37751;52.408;12.536;2024-02-14T02:20:23;6.77;;;3.60;;
51664;SDS011;37751;52.408;12.536;2024-02-14T02:22:58;7.60;;;4.20;;
51664;SDS011;37751;52.408;12.536;2024-02-14T02:25:43;7.73;;;3.70;;
51664;SDS011;37751;52.408;12.536;2024-02-14T02:28:34;7.73;;;3.57;;
51664;SDS011;37751;52.408;12.536;2024-02-14T02:31:06;5.03;;;3.53;;
51664;SDS011;37751;52.408;12.536;2024-02-14T02:33:39;9.90;;;4.13;;
51664;SDS011;37751;52.408;12.536;2024-02-14T02:36:11;6.37;;;3.33;;
51664;SDS011;37751;52.408;12.536;2024-02-14T02:39:09;5.00;;;3.60;;
51664;SDS011;37751;52.408;12.536;2024-02-14T02:42:01;5.43;;;3.23;;
51664;SDS011;37751;52.408;12.536;2024-02-14T02:44:56;5.90;;;3.93;;
51664;SDS011;37751;52.408;12.536;2024-02-14T02:47:55;9.17;;;3.57;;
51664;SDS011;37751;52.408;12.536;2024-02-14T02:50:47;5.93;;;3.37;;
51664;SDS011;37751;52.408;12.536;2024-02-14T02:53:38;8.50;;;4.10;;
51664;SDS011;37751;52.408;12.536;2024-02-14T02:56:32;6.50;;;4.33;;
51664;SDS011;37751;52.408;12.536;2024-02-14T02:59:03;8.53;;;3.93;;
51664;SDS011;37751;52.408;12.536;2024-02-14T03:01:35;6.30;;;3.70;;
51664;SDS011;37751;52.408;12.536;2024-02-14T03:04:27;9.17;;;3.73;;
51664;SDS011;37751;52.408;12.536;2024-02-14T03:07:37;6.17;;;3.33;;
51664;SDS011;37751;52.408;12.536;2024-02-14T03:10:32;7.37;;;3.70;;
51664;SDS011;37751;52.408;12.536;2024-02-14T03:13:26;12.50;;;4.00;;
51664;SDS011;37751;52.408;12.536;2024-02-14T03:16:17;7.23;;;3.90;;
51664;SDS011;37751;52.408;12.536;2024-02-14T03:18:48;6.93;;;3.63;;
51664;SDS011;37751;52.408;12.536;2024-02-14T03:21:19;7.90;;;4.73;;
51664;SDS011;37751;52.408;12.536;2024-02-14T03:23:50;8.33;;;3.87;;
51664;SDS011;37751;52.408;12.536;2024-02-14T03:26:21;7.83;;;4.17;;
51664;SDS011;37751;52.408;12.536;2024-02-14T03:28:56;8.27;;;3.63;;
51664;SDS011;37751;52.408;12.536;2024-02-14T03:31:28;8.73;;;3.83;;
51664;SDS011;37751;52.408;12.536;2024-02-14T03:33:59;11.80;;;3.90;;
51664;SDS011;37751;52.408;12.536;2024-02-14T03:36:30;5.73;;;3.57;;
51664;SDS011;37751;52.408;12.536;2024-02-14T03:39:01;9.57;;;3.83;;
51664;SDS011;37751;52.408;12.536;2024-02-14T03:41:34;7.47;;;4.13;;
51664;SDS011;37751;52.408;12.536;2024-02-14T03:44:07;10.13;;;4.17;;
51664;SDS011;37751;52.408;12.536;2024-02-14T03:46:38;6.87;;;3.70;;
51664;SDS011;37751;52.408;12.536;2024-02-14T03:49:10;9.33;;;4.67;;
51664;SDS011;37751;52.408;12.536;2024-02-14T03:51:41;9.60;;;4.13;;
51664;SDS011;37751;52.408;12.536;2024-02-14T03:54:12;8.40;;;4.27;;
51664;SDS011;37751;52.408;12.536;2024-02-14T03:56:47;6.90;;;4.00;;
51664;SDS011;37751;52.408;12.536;2024-02-14T03:59:21;8.83;;;4.20;;
51664;SDS011;37751;52.408;12.536;2024-02-14T04:01:52;6.30;;;4.27;;
51664;SDS011;37751;52.408;12.536;2024-02-14T04:04:25;9.33;;;4.90;;
51664;SDS011;37751;52.408;12.536;2024-02-14T04:06:56;11.50;;;5.20;;
51664;SDS011;37751;52.408;12.536;2024-02-14T04:09:28;6.43;;;4.47;;
51664;SDS011;37751;52.408;12.536;2024-02-14T04:11:59;8.90;;;4.60;;
51664;SDS011;37751;52.408;12.536;2024-02-14T04:14:33;11.10;;;4.50;;
51664;SDS011;37751;52.408;12.536;2024-02-14T04:17:04;13.20;;;4.97;;
51664;SDS011;37751;52.408;12.536;2024-02-14T04:19:38;9.17;;;4.20;;
51664;SDS011;37751;52.408;12.536;2024-02-14T04:22:10;7.07;;;4.50;;
51664;SDS011;37751;52.408;12.536;2024-02-14T04:24:41;6.53;;;4.80;;
51664;SDS011;37751;52.408;12.536;2024-02-14T04:27:12;9.80;;;4.50;;
51664;SDS011;37751;52.408;12.536;2024-02-14T04:29:47;8.67;;;4.77;;
51664;SDS011;37751;52.408;12.536;2024-02-14T04:32:19;8.63;;;4.80;;
51664;SDS011;37751;52.408;12.536;2024-02-14T04:34:54;7.90;;;4.07;;
51664;SDS011;37751;52.408;12.536;2024-02-14T04:37:28;7.50;;;3.90;;
51664;SDS011;37751;52.408;12.536;2024-02-14T04:40:00;8.57;;;4.67;;
51664;SDS011;37751;52.408;12.536;2024-02-14T04:42:31;9.77;;;4.00;;
51664;SDS011;37751;52.408;12.536;2024-02-14T04:45:06;7.87;;;4.50;;
51664;SDS011;37751;52.408;12.536;2024-02-14T04:47:52;12.67;;;4.10;;
51664;SDS011;37751;52.408;12.536;2024-02-14T04:50:23;12.10;;;4.33;;
51664;SDS011;37751;52.408;12.536;2024-02-14T04:52:54;7.47;;;4.23;;
51664;SDS011;37751;52.408;12.536;2024-02-14T04:55:28;8.77;;;4.53;;
51664;SDS011;37751;52.408;12.536;2024-02-14T04:58:03;11.70;;;4.47;;
51664;SDS011;37751;52.408;12.536;2024-02-14T05:00:37;7.57;;;4.27;;
51664;SDS011;37751;52.408;12.536;2024-02-14T05:03:08;12.67;;;4.30;;
51664;SDS011;37751;52.408;12.536;2024-02-14T05:05:42;8.07;;;4.13;;
51664;SDS011;37751;52.408;12.536;2024-02-14T05:08:13;5.97;;;3.87;;
51664;SDS011;37751;52.408;12.536;2024-02-14T05:10:45;6.70;;;3.63;;
51664;SDS011;37751;52.408;12.536;2024-02-14T05:13:16;7.17;;;3.90;;
51664;SDS011;37751;52.408;12.536;2024-02-14T05:15:50;8.27;;;3.93;;
51664;SDS011;37751;52.408;12.536;2024-02-14T05:18:21;14.03;;;3.93;;
51664;SDS011;37751;52.408;12.536;2024-02-14T05:20:52;8.53;;;3.90;;
51664;SDS011;37751;52.408;12.536;2024-02-14T05:23:24;12.57;;;4.10;;
51664;SDS011;37751;52.408;12.536;2024-02-14T05:25:55;6.53;;;3.70;;
51664;SDS011;37751;52.408;12.536;2024-02-14T05:28:26;5.47;;;3.60;;
51664;SDS011;37751;52.408;12.536;2024-02-14T05:31:01;7.40;;;3.53;;
51664;SDS011;37751;52.408;12.536;2024-02-14T05:33:40;7.90;;;3.60;;
51664;SDS011;37751;52.408;12.536;2024-02-14T05:36:11;6.53;;;3.57;;
51664;SDS011;37751;52.408;12.536;2024-02-14T05:38:42;15.87;;;4.77;;
51664;SDS011;37751;52.408;12.536;2024-02-14T05:41:14;5.70;;;3.53;;
51664;SDS011;37751;52.408;12.536;2024-02-14T05:43:45;9.20;;;4.33;;
51664;SDS011;37751;52.408;12.536;2024-02-14T05:46:19;5.60;;;3.67;;
51664;SDS011;37751;52.408;12.536;2024-02-14T05:48:50;8.33;;;3.60;;
51664;SDS011;37751;52.408;12.536;2024-02-14T05:51:22;7.87;;;3.90;;
51664;SDS011;37751;52.408;12.536;2024-02-14T05:53:53;8.27;;;4.23;;
51664;SDS011;37751;52.408;12.536;2024-02-14T05:56:24;8.53;;;3.80;;
51664;SDS011;37751;52.408;12.536;2024-02-14T05:58:56;7.17;;;3.67;;
51664;SDS011;37751;52.408;12.536;2024-02-14T06:01:30;7.37;;;4.17;;
51664;SDS011;37751;52.408;12.536;2024-02-14T06:04:01;7.23;;;4.23;;
51664;SDS011;37751;52.408;12.536;2024-02-14T06:06:33;6.50;;;3.77;;
51664;SDS011;37751;52.408;12.536;2024-02-14T06:09:07;8.33;;;4.07;;
51664;SDS011;37751;52.408;12.536;2024-02-14T06:11:39;9.47;;;5.37;;
51664;SDS011;37751;52.408;12.536;2024-02-14T06:14:11;7.23;;;4.43;;
51664;SDS011;37751;52.408;12.536;2024-02-14T06:16:45;11.57;;;4.37;;
51664;SDS011;37751;52.408;12.536;2024-02-14T06:19:16;8.43;;;4.50;;
51664;SDS011;37751;52.408;12.536;2024-02-14T06:21:48;6.70;;;4.07;;
51664;SDS011;37751;52.408;12.536;2024-02-14T06:24:19;6.53;;;3.83;;
51664;SDS011;37751;52.408;12.536;2024-02-14T06:26:50;9.07;;;4.20;;
51664;SDS011;37751;52.408;12.536;2024-02-14T06:29:22;6.90;;;4.57;;
51664;SDS011;37751;52.408;12.536;2024-02-14T06:31:56;11.90;;;3.93;;
51664;SDS011;37751;52.408;12.536;2024-02-14T06:34:27;11.10;;;4.30;;
51664;SDS011;37751;52.408;12.536;2024-02-14T06:36:58;16.87;;;4.67;;
51664;SDS011;37751;52.408;12.536;2024-02-14T06:39:30;9.40;;;4.00;;
51664;SDS011;37751;52.408;12.536;2024-02-14T06:42:01;13.13;;;4.40;;
51664;SDS011;37751;52.408;12.536;2024-02-14T06:44:32;7.00;;;3.87;;
51664;SDS011;37751;52.408;12.536;2024-02-14T06:47:06;8.17;;;3.93;;
51664;SDS011;37751;52.408;12.536;2024-02-14T06:49:37;11.23;;;3.70;;
51664;SDS011;37751;52.408;12.536;2024-02-14T06:52:09;6.23;;;3.70;;
51664;SDS011;37751;52.408;12.536;2024-02-14T06:54:40;6.37;;;3.60;;
51664;SDS011;37751;52.408;12.536;2024-02-14T06:57:12;8.47;;;3.60;;
51664;SDS011;37751;52.408;12.536;2024-02-14T06:59:44;11.53;;;4.77;;
51664;SDS011;37751;52.408;12.536;2024-02-14T07:02:18;9.17;;;3.80;;
51664;SDS011;37751;52.408;12.536;2024-02-14T07:04:50;10.10;;;3.93;;
51664;SDS011;37751;52.408;12.536;2024-02-14T07:07:21;6.03;;;3.13;;
51664;SDS011;37751;52.408;12.536;2024-02-14T07:09:52;6.70;;;3.23;;
51664;SDS011;37751;52.408;12.536;2024-02-14T07:12:24;5.67;;;3.30;;
51664;SDS011;37751;52.408;12.536;2024-02-14T07:14:57;9.70;;;3.30;;
51664;SDS011;37751;52.408;12.536;2024-02-14T07:17:32;6.63;;;3.30;;
51664;SDS011;37751;52.408;12.536;2024-02-14T07:20:06;8.27;;;2.83;;
51664;SDS011;37751;52.408;12.536;2024-02-14T07:22:38;11.93;;;3.13;;
51664;SDS011;37751;52.408;12.536;2024-02-14T07:25:09;6.97;;;3.57;;
51664;SDS011;37751;52.408;12.536;2024-02-14T07:27:40;8.23;;;3.03;;
51664;SDS011;37751;52.408;12.536;2024-02-14T07:30:13;10.13;;;2.93;;
51664;SDS011;37751;52.408;12.536;2024-02-14T07:32:47;6.00;;;2.67;;
51664;SDS011;37751;52.408;12.536;2024-02-14T07:35:19;7.43;;;2.47;;
51664;SDS011;37751;52.408;12.536;2024-02-14T07:37:50;4.70;;;3.07;;
51664;SDS011;37751;52.408;12.536;2024-02-14T07:40:22;3.90;;;2.53;;
51664;SDS011;37751;52.408;12.536;2024-02-14T07:43:10;8.30;;;2.33;;
51664;SDS011;37751;52.408;12.536;2024-02-14T07:45:41;8.27;;;2.70;;
51664;SDS011;37751;52.408;12.536;2024-02-14T07:48:15;4.53;;;2.60;;
51664;SDS011;37751;52.408;12.536;2024-02-14T07:50:46;9.33;;;2.67;;
51664;SDS011;37751;52.408;12.536;2024-02-14T07:53:20;5.33;;;2.30;;
51664;SDS011;37751;52.408;12.536;2024-02-14T07:55:51;6.97;;;2.70;;
51664;SDS011;37751;52.408;12.536;2024-02-14T07:58:22;8.60;;;2.83;;
51664;SDS011;37751;52.408;12.536;2024-02-14T08:00:53;4.43;;;2.43;;
51664;SDS011;37751;52.408;12.536;2024-02-14T08:03:27;4.97;;;2.63;;
51664;SDS011;37751;52.408;12.536;2024-02-14T08:05:59;7.10;;;2.97;;
51664;SDS011;37751;52.408;12.536;2024-02-14T08:08:31;6.60;;;3.10;;
51664;SDS011;37751;52.408;12.536;2024-02-14T08:11:02;7.00;;;2.77;;
51664;SDS011;37751;52.408;12.536;2024-02-14T08:13:33;3.93;;;2.53;;
51664;SDS011;37751;52.408;12.536;2024-02-14T08:16:06;7.77;;;2.60;;
51664;SDS011;37751;52.408;12.536;2024-02-14T08:18:40;3.50;;;2.53;;
51664;SDS011;37751;52.408;12.536;2024-02-14T08:21:12;4.27;;;2.30;;
51664;SDS011;37751;52.408;12.536;2024-02-14T08:23:43;4.73;;;2.40;;
51664;SDS011;37751;52.408;12.536;2024-02-14T08:26:15;5.53;;;2.63;;
51664;SDS011;37751;52.408;12.536;2024-02-14T08:28:46;6.73;;;3.13;;
51664;SDS011;37751;52.408;12.536;2024-02-14T08:31:17;5.13;;;2.83;;
51664;SDS011;37751;52.408;12.536;2024-02-14T08:33:52;9.10;;;3.00;;
51664;SDS011;37751;52.408;12.536;2024-02-14T08:36:26;5.07;;;2.80;;
51664;SDS011;37751;52.408;12.536;2024-02-14T08:38:57;3.60;;;2.30;;
51664;SDS011;37751;52.408;12.536;2024-02-14T08:41:29;7.10;;;2.60;;
51664;SDS011;37751;52.408;12.536;2024-02-14T08:44:01;6.97;;;2.43;;
51664;SDS011;37751;52.408;12.536;2024-02-14T08:46:32;6.90;;;2.47;;
51664;SDS011;37751;52.408;12.536;2024-02-14T08:49:06;4.03;;;2.40;;
51664;SDS011;37751;52.408;12.536;2024-02-14T08:51:38;4.57;;;2.50;;
51664;SDS011;37751;52.408;12.536;2024-02-14T08:54:11;5.53;;;2.57;;
51664;SDS011;37751;52.408;12.536;2024-02-14T08:56:43;5.97;;;3.13;;
51664;SDS011;37751;52.408;12.536;2024-02-14T08:59:14;7.03;;;2.47;;
51664;SDS011;37751;52.408;12.536;2024-02-14T09:01:45;4.27;;;2.07;;
51664;SDS011;37751;52.408;12.536;2024-02-14T09:04:19;5.27;;;2.37;;
51664;SDS011;37751;52.408;12.536;2024-02-14T09:06:54;7.33;;;2.63;;
51664;SDS011;37751;52.408;12.536;2024-02-14T09:09:26;5.03;;;2.60;;
51664;SDS011;37751;52.408;12.536;2024-02-14T09:11:58;8.17;;;2.53;;
51664;SDS011;37751;52.408;12.536;2024-02-14T09:14:30;3.60;;;2.07;;
51664;SDS011;37751;52.408;12.536;2024-02-14T09:17:02;6.57;;;2.57;;
51664;SDS011;37751;52.408;12.536;2024-02-14T09:19:36;5.27;;;2.70;;
51664;SDS011;37751;52.408;12.536;2024-02-14T09:22:07;7.90;;;2.37;;
51664;SDS011;37751;52.408;12.536;2024-02-14T09:24:39;5.37;;;2.50;;
51664;SDS011;37751;52.408;12.536;2024-02-14T09:27:10;7.07;;;2.40;;
51664;SDS011;37751;52.408;12.536;2024-02-14T09:29:41;7.80;;;2.70;;
51664;SDS011;37751;52.408;12.536;2024-02-14T09:32:13;7.73;;;2.60;;
51664;SDS011;37751;52.408;12.536;2024-02-14T09:34:48;6.10;;;2.47;;
51664;SDS011;37751;52.408;12.536;2024-02-14T09:37:21;7.23;;;2.53;;
51664;SDS011;37751;52.408;12.536;2024-02-14T09:39:52;5.20;;;2.47;;
51664;SDS011;37751;52.408;12.536;2024-02-14T09:42:26;8.80;;;2.03;;
51664;SDS011;37751;52.408;12.536;2024-02-14T09:45:08;6.97;;;3.07;;
51664;SDS011;37751;52.408;12.536;2024-02-14T09:47:44;5.37;;;2.33;;
51664;SDS011;37751;52.408;12.536;2024-02-14T09:50:22;6.63;;;2.30;;
51664;SDS011;37751;52.408;12.536;2024-02-14T09:52:55;4.73;;;2.40;;
51664;SDS011;37751;52.408;12.536;2024-02-14T09:55:27;6.30;;;2.57;;
51664;SDS011;37751;52.408;12.536;2024-02-14T09:58:00;11.50;;;2.27;;
51664;SDS011;37751;52.408;12.536;2024-02-14T10:00:34;6.97;;;2.90;;
51664;SDS011;37751;52.408;12.536;2024-02-14T10:03:05;4.10;;;2.00;;
51664;SDS011;37751;52.408;12.536;2024-02-14T10:05:40;3.33;;;2.17;;
51664;SDS011;37751;52.408;12.536;2024-02-14T10:08:12;7.25;;;2.42;;
51664;SDS011;37751;52.408;12.536;2024-02-14T10:10:43;6.97;;;2.97;;
51664;SDS011;37751;52.408;12.536;2024-02-14T10:13:18;7.63;;;3.17;;
51664;SDS011;37751;52.408;12.536;2024-02-14T10:15:50;5.45;;;2.85;;
51664;SDS011;37751;52.408;12.536;2024-02-14T10:18:22;20.00;;;10.18;;
51664;SDS011;37751;52.408;12.536;2024-02-14T10:20:57;18.25;;;13.10;;
51664;SDS011;37751;52.408;12.536;2024-02-14T10:23:29;11.48;;;8.00;;
51664;SDS011;37751;52.408;12.536;2024-02-14T10:26:00;9.82;;;7.53;;
51664;SDS011;37751;52.408;12.536;2024-02-14T10:28:32;3.95;;;2.30;;
51664;SDS011;37751;52.408;12.536;2024-02-14T10:31:10;8.45;;;3.70;;
51664;SDS011;37751;52.408;12.536;2024-02-14T10:33:42;8.38;;;2.15;;
51664;SDS011;37751;52.408;12.536;2024-02-14T10:36:16;6.05;;;2.65;;
51664;SDS011;37751;52.408;12.536;2024-02-14T10:38:50;5.57;;;2.80;;
51664;SDS011;37751;52.408;12.536;2024-02-14T10:41:21;6.43;;;2.35;;
51664;SDS011;37751;52.408;12.536;2024-02-14T10:43:52;2.60;;;2.35;;
51664;SDS011;37751;52.408;12.536;2024-02-14T10:46:25;4.70;;;2.28;;
51664;SDS011;37751;52.408;12.536;2024-02-14T10:49:01;5.78;;;2.10;;
51664;SDS011;37751;52.408;12.536;2024-02-14T10:51:38;5.63;;;2.42;;
51664;SDS011;37751;52.408;12.536;2024-02-14T10:54:11;4.78;;;2.10;;
51664;SDS011;37751;52.408;12.536;2024-02-14T10:56:48;4.40;;;2.63;;
51664;SDS011;37751;52.408;12.536;2024-02-14T10:59:20;5.00;;;3.15;;
51664;SDS011;37751;52.408;12.536;2024-02-14T11:01:53;4.15;;;2.33;;
51664;SDS011;37751;52.408;12.536;2024-02-14T11:04:25;7.95;;;3.00;;
51664;SDS011;37751;52.408;12.536;2024-02-14T11:06:59;8.20;;;3.22;;
51664;SDS011;37751;52.408;12.536;2024-02-14T11:09:31;4.25;;;2.00;;
51664;SDS011;37751;52.408;12.536;2024-02-14T11:12:06;4.93;;;2.22;;
51664;SDS011;37751;52.408;12.536;2024-02-14T11:14:41;7.18;;;2.45;;
51664;SDS011;37751;52.408;12.536;2024-02-14T11:17:13;4.38;;;2.30;;
51664;SDS011;37751;52.408;12.536;2024-02-14T11:19:47;4.30;;;1.98;;
51664;SDS011;37751;52.408;12.536;2024-02-14T11:22:22;6.00;;;2.70;;
51664;SDS011;37751;52.408;12.536;2024-02-14T11:24:53;8.23;;;3.20;;
51664;SDS011;37751;52.408;12.536;2024-02-14T11:27:24;3.22;;;2.30;;
51664;SDS011;37751;52.408;12.536;2024-02-14T11:30:01;7.15;;;2.45;;
51664;SDS011;37751;52.408;12.536;2024-02-14T11:32:36;5.55;;;2.50;;
51664;SDS011;37751;52.408;12.536;2024-02-14T11:35:11;5.45;;;2.08;;
51664;SDS011;37751;52.408;12.536;2024-02-14T11:37:46;8.02;;;3.00;;
51664;SDS011;37751;52.408;12.536;2024-02-14T11:40:22;4.82;;;2.30;;
51664;SDS011;37751;52.408;12.536;2024-02-14T11:42:53;3.45;;;2.00;;
51664;SDS011;37751;52.408;12.536;2024-02-14T11:45:25;6.10;;;2.53;;
51664;SDS011;37751;52.408;12.536;2024-02-14T11:47:59;6.10;;;2.42;;
51664;SDS011;37751;52.408;12.536;2024-02-14T11:50:32;7.25;;;2.13;;
51664;SDS011;37751;52.408;12.536;2024-02-14T11:53:06;5.57;;;2.58;;
51664;SDS011;37751;52.408;12.536;2024-02-14T11:55:38;5.93;;;2.40;;
51664;SDS011;37751;52.408;12.536;2024-02-14T11:58:10;4.45;;;2.10;;
51664;SDS011;37751;52.408;12.536;2024-02-14T12:00:43;4.32;;;2.38;;
51664;SDS011;37751;52.408;12.536;2024-02-14T12:03:16;5.18;;;2.40;;
51664;SDS011;37751;52.408;12.536;2024-02-14T12:05:49;5.68;;;2.03;;
51664;SDS011;37751;52.408;12.536;2024-02-14T12:08:29;4.60;;;2.10;;
51664;SDS011;37751;52.408;12.536;2024-02-14T12:11:01;4.75;;;2.60;;
51664;SDS011;37751;52.408;12.536;2024-02-14T12:13:33;5.45;;;2.13;;
51664;SDS011;37751;52.408;12.536;2024-02-14T12:16:05;4.75;;;2.50;;
51664;SDS011;37751;52.408;12.536;2024-02-14T12:18:38;6.85;;;2.50;;
51664;SDS011;37751;52.408;12.536;2024-02-14T12:21:09;4.68;;;2.72;;
51664;SDS011;37751;52.408;12.536;2024-02-14T12:23:43;7.82;;;3.38;;
51664;SDS011;37751;52.408;12.536;2024-02-14T12:26:15;5.00;;;2.55;;
51664;SDS011;37751;52.408;12.536;2024-02-14T12:28:47;8.73;;;2.78;;
51664;SDS011;37751;52.408;12.536;2024-02-14T12:31:21;5.25;;;2.45;;
51664;SDS011;37751;52.408;12.536;2024-02-14T12:33:53;5.63;;;2.70;;
51664;SDS011;37751;52.408;12.536;2024-02-14T12:36:27;3.22;;;1.98;;
51664;SDS011;37751;52.408;12.536;2024-02-14T12:39:01;5.28;;;2.67;;
51664;SDS011;37751;52.408;12.536;2024-02-14T12:41:33;7.72;;;2.50;;
51664;SDS011;37751;52.408;12.536;2024-02-14T12:44:07;4.47;;;2.10;;
51664;SDS011;37751;52.408;12.536;2024-02-14T12:46:41;2.72;;;2.28;;
51664;SDS011;37751;52.408;12.536;2024-02-14T12:49:13;6.03;;;2.67;;
51664;SDS011;37751;52.408;12.536;2024-02-14T12:51:45;6.25;;;2.63;;
51664;SDS011;37751;52.408;12.536;2024-02-14T12:54:20;8.48;;;3.03;;
51664;SDS011;37751;52.408;12.536;2024-02-14T12:56:51;6.88;;;2.60;;
51664;SDS011;37751;52.408;12.536;2024-02-14T12:59:23;7.70;;;2.83;;
51664;SDS011;37751;52.408;12.536;2024-02-14T13:01:54;8.70;;;3.03;;
51664;SDS011;37751;52.408;12.536;2024-02-14T13:04:25;3.70;;;2.75;;
51664;SDS011;37751;52.408;12.536;2024-02-14T13:06:58;4.88;;;2.50;;
51664;SDS011;37751;52.408;12.536;2024-02-14T13:09:33;6.88;;;2.42;;
51664;SDS011;37751;52.408;12.536;2024-02-14T13:12:05;5.68;;;2.80;;
51664;SDS011;37751;52.408;12.536;2024-02-14T13:14:37;4.07;;;2.58;;
51664;SDS011;37751;52.408;12.536;2024-02-14T13:17:09;6.80;;;2.80;;
51664;SDS011;37751;52.408;12.536;2024-02-14T13:19:41;11.20;;;2.75;;
51664;SDS011;37751;52.408;12.536;2024-02-14T13:22:13;9.05;;;2.70;;
51664;SDS011;37751;52.408;12.536;2024-02-14T13:24:47;5.88;;;2.80;;
51664;SDS011;37751;52.408;12.536;2024-02-14T13:27:18;4.28;;;2.78;;
51664;SDS011;37751;52.408;12.536;2024-02-14T13:29:51;9.82;;;2.50;;
51664;SDS011;37751;52.408;12.536;2024-02-14T13:32:22;4.00;;;2.28;;
51664;SDS011;37751;52.408;12.536;2024-02-14T13:34:54;5.35;;;2.67;;
51664;SDS011;37751;52.408;12.536;2024-02-14T13:37:26;4.53;;;2.40;;
51664;SDS011;37751;52.408;12.536;2024-02-14T13:40:01;4.65;;;2.42;;
51664;SDS011;37751;52.408;12.536;2024-02-14T13:42:37;4.18;;;2.40;;
51664;SDS011;37751;52.408;12.536;2024-02-14T13:45:09;10.27;;;2.30;;
51664;SDS011;37751;52.408;12.536;2024-02-14T13:47:40;4.28;;;2.55;;
51664;SDS011;37751;52.408;12.536;2024-02-14T13:50:13;5.78;;;2.38;;
51664;SDS011;37751;52.408;12.536;2024-02-14T13:52:45;3.50;;;2.47;;
51664;SDS011;37751;52.408;12.536;2024-02-14T13:55:19;7.93;;;2.47;;
51664;SDS011;37751;52.408;12.536;2024-02-14T13:57:53;6.32;;;2.38;;
51664;SDS011;37751;52.408;12.536;2024-02-14T14:00:25;6.43;;;2.13;;
51664;SDS011;37751;52.408;12.536;2024-02-14T14:02:56;5.55;;;2.40;;
51664;SDS011;37751;52.408;12.536;2024-02-14T14:05:27;5.38;;;2.63;;
51664;SDS011;37751;52.408;12.536;2024-02-14T14:07:59;5.00;;;2.53;;
51664;SDS011;37751;52.408;12.536;2024-02-14T14:10:33;3.35;;;1.95;;
51664;SDS011;37751;52.408;12.536;2024-02-14T14:13:04;4.15;;;2.10;;
51664;SDS011;37751;52.408;12.536;2024-02-14T14:15:36;4.40;;;2.35;;
51664;SDS011;37751;52.408;12.536;2024-02-14T14:18:08;2.97;;;2.00;;
51664;SDS011;37751;52.408;12.536;2024-02-14T14:20:42;5.97;;;2.30;;
51664;SDS011;37751;52.408;12.536;2024-02-14T14:23:13;4.05;;;2.35;;
51664;SDS011;37751;52.408;12.536;2024-02-14T14:25:48;3.72;;;2.17;;
51664;SDS011;37751;52.408;12.536;2024-02-14T14:28:19;3.65;;;2.30;;
51664;SDS011;37751;52.408;12.536;2024-02-14T14:30:52;3.05;;;1.80;;
51664;SDS011;37751;52.408;12.536;2024-02-14T14:33:23;3.65;;;2.08;;
51664;SDS011;37751;52.408;12.536;2024-02-14T14:35:55;2.40;;;1.80;;
51664;SDS011;37751;52.408;12.536;2024-02-14T14:38:26;6.82;;;2.10;;
51664;SDS011;37751;52.408;12.536;2024-02-14T14:41:00;6.15;;;2.03;;
51664;SDS011;37751;52.408;12.536;2024-02-14T14:43:32;4.22;;;2.17;;
51664;SDS011;37751;52.408;12.536;2024-02-14T14:46:04;3.90;;;2.13;;
51664;SDS011;37751;52.408;12.536;2024-02-14T14:48:35;4.93;;;1.73;;
51664;SDS011;37751;52.408;12.536;2024-02-14T14:51:06;4.80;;;1.92;;
51664;SDS011;37751;52.408;12.536;2024-02-14T14:53:38;4.00;;;1.77;;
51664;SDS011;37751;52.408;12.536;2024-02-14T14:56:15;4.80;;;2.15;;
51664;SDS011;37751;52.408;12.536;2024-02-14T14:58:50;4.57;;;2.03;;
51664;SDS011;37751;52.408;12.536;2024-02-14T15:01:23;5.13;;;2.00;;
51664;SDS011;37751;52.408;12.536;2024-02-14T15:03:55;5.70;;;2.22;;
51664;SDS011;37751;52.408;12.536;2024-02-14T15:06:26;5.15;;;2.25;;
51664;SDS011;37751;52.408;12.536;2024-02-14T15:08:59;7.47;;;2.50;;
51664;SDS011;37751;52.408;12.536;2024-02-14T15:11:33;4.75;;;1.98;;